ESSA/ARN METAR and TAF weather

Enter ICAO airport designator
Station Type Date Time Source
ESSA METAR 2020/02/21 14:50 UTC NOAA

ESSA 211450Z 24020KT CAVOK 06/M01 Q1000 R01L/11//95 R08/11//95 R01R/11//95 NOSIG


Station Type Date Time Source
ESSA Decoded METAR 2020/02/21 14:50 UTC NOAA

Stockholm / Arlanda, Sweden (ESSA) 59-39N 017-57E 61M
Feb 21, 2020 - 09:50 AM EST / 2020.02.21 1450 UTC
Wind: from the WSW (240 degrees) at 23 MPH (20 KT):0
Visibility: greater than 7 mile(s):0
Temperature: 42 F (6 C)
Dew Point: 30 F (-1 C)
Relative Humidity: 60%
Pressure (altimeter): 29.53 in. Hg (1000 hPa)
ob: ESSA 211450Z 24020KT CAVOK 06/M01 Q1000 R01L/11//95 R08/11//95 R01R/11//95 NOSIG
cycle: 15

Station Type Date Time Source
ESSA TAF 2020/02/21 12:15 UTC NOAA

TAF ESSA 211130Z 2112/2212 25018KT CAVOK
BECMG 2118/2121 21015G28KT PROB40 2209/2212 SHRA BKN010 BKN020CB

Example: see airport list